Time,TemperatureF,DewpointF,PressureIn,WindDirection,WindDirectionDegrees,WindSpeedMPH,WindSpeedGustMPH,Humidity,HourlyPrecipIn,Conditions,Clouds,dailyrainin,SoftwareType,DateUTC
2013-08-24 00:09:00,67.2,65.0,30.09,NNE,31,0.0,2.0,92,0.00,,,0.00,weatherlink.com 1.10,2013-08-24 04:09:00,
2013-08-24 00:24:00,66.9,65.0,30.09,NNE,31,0.0,0.0,92,0.00,,,0.00,weatherlink.com 1.10,2013-08-24 04:24:00,
2013-08-24 00:39:00,66.6,65.0,30.09,NNE,31,0.0,0.0,93,0.00,,,0.00,weatherlink.com 1.10,2013-08-24 04:39:00,
2013-08-24 00:54:00,66.3,64.0,30.09,NNE,31,0.0,0.0,93,0.00,,,0.00,weatherlink.com 1.10,2013-08-24 04:54:00,
2013-08-24 01:09:00,65.9,64.0,30.09,NNE,31,0.0,0.0,93,0.00,,,0.00,weatherlink.com 1.10,2013-08-24 05:09:00,
2013-08-24 01:24:00,65.6,64.0,30.09,NNE,31,0.0,0.0,93,0.00,,,0.00,weatherlink.com 1.10,2013-08-24 05:24:00,
2013-08-24 01:39:00,65.3,64.0,30.09,NNE,31,0.0,1.0,94,0.00,,,0.00,weatherlink.com 1.10,2013-08-24 05:39:00,
2013-08-24 01:54:00,65.1,63.0,30.09,NNE,31,1.0,2.0,94,0.00,,,0.00,weatherlink.com 1.10,2013-08-24 05:54:00,
2013-08-24 02:09:00,64.9,64.0,30.09,NNE,31,0.0,0.0,95,0.00,,,0.00,weatherlink.com 1.10,2013-08-24 06:09:00,
2013-08-24 02:24:00,65.1,64.0,30.09,NNE,31,1.0,2.0,96,0.00,,,0.00,weatherlink.com 1.10,2013-08-24 06:24:00,
2013-08-24 02:39:00,65.2,64.0,30.09,NNE,31,0.0,2.0,95,0.00,,,0.00,weatherlink.com 1.10,2013-08-24 06:39:00,
2013-08-24 02:54:00,64.8,63.0,30.09,NNE,31,0.0,1.0,95,0.00,,,0.00,weatherlink.com 1.10,2013-08-24 06:54:00,
2013-08-24 03:09:00,64.9,64.0,30.10,NNE,31,0.0,2.0,95,0.00,,,0.00,weatherlink.com 1.10,2013-08-24 07:09:00,
2013-08-24 03:24:00,64.7,63.0,30.10,NNE,31,0.0,0.0,95,0.00,,,0.00,weatherlink.com 1.10,2013-08-24 07:24:00,
2013-08-24 03:39:00,64.2,63.0,30.10,NNE,31,0.0,0.0,94,0.00,,,0.00,weatherlink.com 1.10,2013-08-24 07:39:00,
2013-08-24 03:54:00,63.9,62.0,30.11,NNE,31,0.0,0.0,94,0.00,,,0.00,weatherlink.com 1.10,2013-08-24 07:54:00,
2013-08-24 04:09:00,63.5,62.0,30.11,NNE,31,0.0,0.0,95,0.00,,,0.00,weatherlink.com 1.10,2013-08-24 08:09:00,
2013-08-24 04:24:00,63.3,62.0,30.12,NNE,31,0.0,0.0,95,0.00,,,0.00,weatherlink.com 1.10,2013-08-24 08:24:00,
2013-08-24 04:39:00,63.0,62.0,30.12,NNE,31,1.0,2.0,95,0.00,,,0.00,weatherlink.com 1.10,2013-08-24 08:39:00,
2013-08-24 04:54:00,62.9,62.0,30.12,NNE,31,0.0,3.0,96,0.00,,,0.00,weatherlink.com 1.10,2013-08-24 08:54:00,
2013-08-24 05:09:00,62.9,62.0,30.13,NNE,31,0.0,0.0,96,0.00,,,0.00,weatherlink.com 1.10,2013-08-24 09:09:00,
2013-08-24 05:24:00,62.6,61.0,30.13,NNE,31,0.0,0.0,95,0.00,,,0.00,weatherlink.com 1.10,2013-08-24 09:24:00,
2013-08-24 05:39:00,62.5,61.0,30.13,NNE,31,0.0,1.0,96,0.00,,,0.00,weatherlink.com 1.10,2013-08-24 09:39:00,
2013-08-24 05:54:00,62.4,61.0,30.13,NNE,31,0.0,1.0,96,0.00,,,0.00,weatherlink.com 1.10,2013-08-24 09:54:00,
2013-08-24 06:09:00,62.2,61.0,30.14,NNE,31,1.0,2.0,96,0.00,,,0.00,weatherlink.com 1.10,2013-08-24 10:09:00,
2013-08-24 06:24:00,62.1,61.0,30.14,NNE,31,0.0,2.0,96,0.00,,,0.00,weatherlink.com 1.10,2013-08-24 10:24:00,
2013-08-24 06:39:00,62.0,61.0,30.14,NNE,31,0.0,2.0,96,0.00,,,0.00,weatherlink.com 1.10,2013-08-24 10:39:00,
2013-08-24 06:54:00,61.8,61.0,30.15,NNE,31,0.0,0.0,96,0.00,,,0.00,weatherlink.com 1.10,2013-08-24 10:54:00,
2013-08-24 07:09:00,61.5,60.0,30.16,NNE,31,0.0,2.0,96,0.00,,,0.00,weatherlink.com 1.10,2013-08-24 11:09:00,
2013-08-24 07:24:00,61.4,60.0,30.16,NNE,31,0.0,0.0,96,0.00,,,0.00,weatherlink.com 1.10,2013-08-24 11:24:00,
2013-08-24 07:40:00,61.3,60.0,30.17,NNE,31,0.0,2.0,96,0.00,,,0.00,weatherlink.com 1.10,2013-08-24 11:40:00,
2013-08-24 07:55:00,61.6,61.0,30.18,NNE,31,1.0,3.0,97,0.00,,,0.00,weatherlink.com 1.10,2013-08-24 11:55:00,
2013-08-24 08:10:00,62.1,61.0,30.18,NNE,31,1.0,3.0,97,0.00,,,0.00,weatherlink.com 1.10,2013-08-24 12:10:00,
2013-08-24 08:25:00,63.0,63.0,30.18,NNE,30,4.0,5.0,98,0.00,,,0.00,weatherlink.com 1.10,2013-08-24 12:25:00,
2013-08-24 08:40:00,63.9,63.0,30.19,NNE,27,4.0,4.0,97,0.00,,,0.00,weatherlink.com 1.10,2013-08-24 12:40:00,
2013-08-24 08:55:00,64.9,64.0,30.19,NNE,33,2.0,4.0,96,0.00,,,0.00,weatherlink.com 1.10,2013-08-24 12:55:00,
2013-08-24 09:10:00,66.0,64.0,30.20,NE,34,4.0,5.0,94,0.00,,,0.00,weatherlink.com 1.10,2013-08-24 13:10:00,
2013-08-24 09:25:00,67.2,65.0,30.20,NE,40,3.0,6.0,92,0.00,,,0.00,weatherlink.com 1.10,2013-08-24 13:25:00,
2013-08-24 09:40:00,68.4,65.0,30.20,NE,34,4.0,7.0,90,0.00,,,0.00,weatherlink.com 1.10,2013-08-24 13:40:00,
2013-08-24 09:55:00,69.5,66.0,30.21,NNE,28,4.0,6.0,88,0.00,,,0.00,weatherlink.com 1.10,2013-08-24 13:55:00,
2013-08-24 10:10:00,70.7,66.0,30.20,NNE,22,1.0,6.0,86,0.00,,,0.00,weatherlink.com 1.10,2013-08-24 14:10:00,
2013-08-24 10:25:00,71.9,67.0,30.20,NNE,19,2.0,4.0,85,0.00,,,0.00,weatherlink.com 1.10,2013-08-24 14:25:00,
2013-08-24 10:40:00,73.3,68.0,30.20,North,5,2.0,5.0,83,0.00,,,0.00,weatherlink.com 1.10,2013-08-24 14:40:00,
2013-08-24 10:55:00,74.4,69.0,30.21,ENE,61,1.0,3.0,83,0.00,,,0.00,weatherlink.com 1.10,2013-08-24 14:55:00,
2013-08-24 11:10:00,75.5,69.0,30.21,NE,42,0.0,4.0,79,0.00,,,0.00,weatherlink.com 1.10,2013-08-24 15:10:00,
2013-08-24 11:25:00,76.6,69.0,30.21,East,100,0.0,2.0,78,0.00,,,0.00,weatherlink.com 1.10,2013-08-24 15:25:00,
2013-08-24 11:40:00,77.6,70.0,30.20,ESE,115,0.0,6.0,77,0.00,,,0.00,weatherlink.com 1.10,2013-08-24 15:40:00,
2013-08-24 11:55:00,78.5,69.0,30.21,NE,34,1.0,4.0,72,0.00,,,0.00,weatherlink.com 1.10,2013-08-24 15:55:00,
2013-08-24 12:10:00,79.6,68.0,30.20,NE,38,2.0,8.0,67,0.00,,,0.00,weatherlink.com 1.10,2013-08-24 16:10:00,
2013-08-24 12:25:00,80.7,67.0,30.20,NE,34,0.0,6.0,64,0.00,,,0.00,weatherlink.com 1.10,2013-08-24 16:25:00,
2013-08-24 12:40:00,81.8,68.0,30.20,North,11,0.0,4.0,63,0.00,,,0.00,weatherlink.com 1.10,2013-08-24 16:40:00,
2013-08-24 12:55:00,82.7,67.0,30.19,NNE,13,0.0,3.0,59,0.00,,,0.00,weatherlink.com 1.10,2013-08-24 16:55:00,
2013-08-24 13:11:00,83.2,66.0,30.19,East,98,2.0,4.0,56,0.00,,,0.00,weatherlink.com 1.10,2013-08-24 17:11:00,
2013-08-24 13:26:00,84.1,66.0,30.19,NNE,32,0.0,4.0,54,0.00,,,0.00,weatherlink.com 1.10,2013-08-24 17:26:00,
2013-08-24 13:41:00,84.4,67.0,30.18,South,171,1.0,4.0,57,0.00,,,0.00,weatherlink.com 1.10,2013-08-24 17:41:00,
2013-08-24 13:56:00,85.5,64.0,30.18,SSE,167,0.0,7.0,49,0.00,,,0.00,weatherlink.com 1.10,2013-08-24 17:56:00,
2013-08-24 14:11:00,87.3,66.0,30.18,NNE,24,1.0,4.0,50,0.00,,,0.00,weatherlink.com 1.10,2013-08-24 18:11:00,
2013-08-24 14:26:00,88.3,66.0,30.17,SSE,159,2.0,10.0,47,0.00,,,0.00,weatherlink.com 1.10,2013-08-24 18:26:00,
2013-08-24 14:41:00,89.7,64.0,30.17,NNE,22,2.0,9.0,42,0.00,,,0.00,weatherlink.com 1.10,2013-08-24 18:41:00,
2013-08-24 14:56:00,89.0,63.0,30.17,NNE,28,5.0,9.0,42,0.00,,,0.00,weatherlink.com 1.10,2013-08-24 18:56:00,
2013-08-24 15:11:00,89.8,64.0,30.17,NE,55,3.0,6.0,43,0.00,,,0.00,weatherlink.com 1.10,2013-08-24 19:11:00,
2013-08-24 15:26:00,91.4,61.0,30.16,NNE,26,4.0,7.0,36,0.00,,,0.00,weatherlink.com 1.10,2013-08-24 19:26:00,
2013-08-24 15:41:00,92.1,64.0,30.16,NE,42,0.0,4.0,39,0.00,,,0.00,weatherlink.com 1.10,2013-08-24 19:41:00,
2013-08-24 15:56:00,92.5,62.0,30.16,NNE,17,4.0,9.0,36,0.00,,,0.00,weatherlink.com 1.10,2013-08-24 19:56:00,
2013-08-24 16:11:00,92.5,63.0,30.16,ENE,63,3.0,9.0,37,0.00,,,0.00,weatherlink.com 1.10,2013-08-24 20:11:00,
2013-08-24 16:26:00,92.6,60.0,30.16,WNW,295,2.0,8.0,34,0.00,,,0.00,weatherlink.com 1.10,2013-08-24 20:26:00,
2013-08-24 16:41:00,92.8,58.0,30.16,SE,130,2.0,5.0,31,0.00,,,0.00,weatherlink.com 1.10,2013-08-24 20:41:00,
2013-08-24 16:56:00,92.4,61.0,30.16,NE,40,1.0,6.0,35,0.00,,,0.00,weatherlink.com 1.10,2013-08-24 20:56:00,
2013-08-24 17:11:00,92.8,58.0,30.16,NE,44,2.0,5.0,31,0.00,,,0.00,weatherlink.com 1.10,2013-08-24 21:11:00,
2013-08-24 17:26:00,93.1,58.0,30.15,NE,34,1.0,4.0,31,0.00,,,0.00,weatherlink.com 1.10,2013-08-24 21:26:00,
2013-08-24 17:41:00,93.3,58.0,30.15,NE,35,0.0,6.0,30,0.00,,,0.00,weatherlink.com 1.10,2013-08-24 21:41:00,
2013-08-24 17:56:00,93.1,62.0,30.15,NE,42,0.0,4.0,35,0.00,,,0.00,weatherlink.com 1.10,2013-08-24 21:56:00,
2013-08-24 18:11:00,93.1,62.0,30.15,NNE,24,2.0,4.0,36,0.00,,,0.00,weatherlink.com 1.10,2013-08-24 22:11:00,
2013-08-24 18:26:00,92.4,62.0,30.14,ENE,62,0.0,3.0,36,0.00,,,0.00,weatherlink.com 1.10,2013-08-24 22:26:00,
2013-08-24 18:41:00,90.2,63.0,30.15,South,170,0.0,5.0,40,0.00,,,0.00,weatherlink.com 1.10,2013-08-24 22:41:00,
2013-08-24 18:56:00,88.4,64.0,30.15,SSE,163,0.0,2.0,44,0.00,,,0.00,weatherlink.com 1.10,2013-08-24 22:56:00,
2013-08-24 19:11:00,87.3,64.0,30.15,East,83,0.0,1.0,46,0.00,,,0.00,weatherlink.com 1.10,2013-08-24 23:11:00,
2013-08-24 19:26:00,84.5,66.0,30.14,East,81,1.0,2.0,54,0.00,,,0.00,weatherlink.com 1.10,2013-08-24 23:26:00,
2013-08-24 19:41:00,81.7,65.0,30.15,North,360,2.0,4.0,58,0.00,,,0.00,weatherlink.com 1.10,2013-08-24 23:41:00,
2013-08-24 19:56:00,79.6,66.0,30.15,North,360,1.0,2.0,64,0.00,,,0.00,weatherlink.com 1.10,2013-08-24 23:56:00,
2013-08-24 20:11:00,77.7,66.0,30.15,North,360,2.0,2.0,67,0.00,,,0.00,weatherlink.com 1.10,2013-08-25 00:11:00,
2013-08-24 20:26:00,75.7,66.0,30.16,North,360,1.0,1.0,72,0.00,,,0.00,weatherlink.com 1.10,2013-08-25 00:26:00,
2013-08-24 20:41:00,73.7,65.0,30.16,North,360,0.0,2.0,75,0.00,,,0.00,weatherlink.com 1.10,2013-08-25 00:41:00,
2013-08-24 20:56:00,72.4,65.0,30.16,North,360,0.0,0.0,78,0.00,,,0.00,weatherlink.com 1.10,2013-08-25 00:56:00,
2013-08-24 21:11:00,71.2,65.0,30.16,North,360,0.0,0.0,80,0.00,,,0.00,weatherlink.com 1.10,2013-08-25 01:11:00,
2013-08-24 21:26:00,70.0,64.0,30.16,North,360,0.0,0.0,80,0.00,,,0.00,weatherlink.com 1.10,2013-08-25 01:26:00,
2013-08-24 21:41:00,68.8,63.0,30.17,North,360,0.0,2.0,82,0.00,,,0.00,weatherlink.com 1.10,2013-08-25 01:41:00,
2013-08-24 21:56:00,68.0,63.0,30.17,North,360,0.0,0.0,84,0.00,,,0.00,weatherlink.com 1.10,2013-08-25 01:56:00,
2013-08-24 22:11:00,67.2,63.0,30.18,North,360,0.0,0.0,85,0.00,,,0.00,weatherlink.com 1.10,2013-08-25 02:11:00,
2013-08-24 22:26:00,66.6,62.0,30.18,North,360,0.0,0.0,85,0.00,,,0.00,weatherlink.com 1.10,2013-08-25 02:26:00,
2013-08-24 22:41:00,65.8,62.0,30.19,North,360,0.0,0.0,87,0.00,,,0.00,weatherlink.com 1.10,2013-08-25 02:41:00,
2013-08-24 22:56:00,65.1,61.0,30.19,North,360,0.0,2.0,87,0.00,,,0.00,weatherlink.com 1.10,2013-08-25 02:56:00,
2013-08-24 23:11:00,64.7,61.0,30.19,North,360,0.0,0.0,87,0.00,,,0.00,weatherlink.com 1.10,2013-08-25 03:11:00,
2013-08-24 23:26:00,64.3,61.0,30.20,North,360,0.0,0.0,88,0.00,,,0.00,weatherlink.com 1.10,2013-08-25 03:26:00,
2013-08-24 23:41:00,63.9,60.0,30.20,North,360,0.0,0.0,88,0.00,,,0.00,weatherlink.com 1.10,2013-08-25 03:41:00,
2013-08-24 23:56:00,63.5,60.0,30.20,North,360,0.0,0.0,88,0.00,,,0.00,weatherlink.com 1.10,2013-08-25 03:56:00,